sensor_id;sensor_type;location;lat;lon;timestamp;temperature;humidity
26378;DHT22;14078;50.974;6.786;2022-09-13T00:00:41;17.00;1.00
26378;DHT22;14078;50.974;6.786;2022-09-13T00:03:08;17.10;99.90
26378;DHT22;14078;50.974;6.786;2022-09-13T00:05:36;17.10;99.90
26378;DHT22;14078;50.974;6.786;2022-09-13T00:08:03;17.20;1.00
26378;DHT22;14078;50.974;6.786;2022-09-13T00:10:31;17.20;62.50
26378;DHT22;14078;50.974;6.786;2022-09-13T00:12:59;17.20;99.90
26378;DHT22;14078;50.974;6.786;2022-09-13T00:15:26;17.10;1.00
26378;DHT22;14078;50.974;6.786;2022-09-13T00:17:52;17.00;1.00
26378;DHT22;14078;50.974;6.786;2022-09-13T00:20:19;16.90;1.00
26378;DHT22;14078;50.974;6.786;2022-09-13T00:22:45;16.70;1.00
26378;DHT22;14078;50.974;6.786;2022-09-13T00:25:12;16.50;1.00
26378;DHT22;14078;50.974;6.786;2022-09-13T00:27:40;16.60;1.00
26378;DHT22;14078;50.974;6.786;2022-09-13T00:30:07;16.70;1.00
26378;DHT22;14078;50.974;6.786;2022-09-13T00:32:33;16.80;1.00
26378;DHT22;14078;50.974;6.786;2022-09-13T00:35:00;16.80;99.90
26378;DHT22;14078;50.974;6.786;2022-09-13T00:37:27;16.80;99.90
26378;DHT22;14078;50.974;6.786;2022-09-13T00:39:53;16.80;99.90
26378;DHT22;14078;50.974;6.786;2022-09-13T00:42:23;16.80;99.90
26378;DHT22;14078;50.974;6.786;2022-09-13T00:44:55;16.90;1.00
26378;DHT22;14078;50.974;6.786;2022-09-13T00:47:24;16.90;99.90
26378;DHT22;14078;50.974;6.786;2022-09-13T00:49:52;16.80;1.00
26378;DHT22;14078;50.974;6.786;2022-09-13T00:52:20;16.90;1.00
26378;DHT22;14078;50.974;6.786;2022-09-13T00:54:50;17.00;99.90
26378;DHT22;14078;50.974;6.786;2022-09-13T00:57:18;17.00;99.90
26378;DHT22;14078;50.974;6.786;2022-09-13T00:59:47;16.90;99.90
26378;DHT22;14078;50.974;6.786;2022-09-13T01:02:18;17.00;1.00
26378;DHT22;14078;50.974;6.786;2022-09-13T01:04:44;16.90;99.90
26378;DHT22;14078;50.974;6.786;2022-09-13T01:07:12;16.80;1.00
26378;DHT22;14078;50.974;6.786;2022-09-13T01:09:40;16.70;1.00
26378;DHT22;14078;50.974;6.786;2022-09-13T01:12:10;16.70;1.00
26378;DHT22;14078;50.974;6.786;2022-09-13T01:14:40;16.60;1.00
26378;DHT22;14078;50.974;6.786;2022-09-13T01:17:07;16.50;1.00
26378;DHT22;14078;50.974;6.786;2022-09-13T01:19:35;16.60;1.00
26378;DHT22;14078;50.974;6.786;2022-09-13T01:22:17;16.70;1.00
26378;DHT22;14078;50.974;6.786;2022-09-13T01:24:51;16.70;1.00
26378;DHT22;14078;50.974;6.786;2022-09-13T01:27:40;16.70;1.00
26378;DHT22;14078;50.974;6.786;2022-09-13T01:30:13;16.70;1.00
26378;DHT22;14078;50.974;6.786;2022-09-13T01:32:43;16.70;1.00
26378;DHT22;14078;50.974;6.786;2022-09-13T01:35:15;16.70;1.00
26378;DHT22;14078;50.974;6.786;2022-09-13T01:37:49;16.70;1.00
26378;DHT22;14078;50.974;6.786;2022-09-13T01:40:21;16.70;1.00
26378;DHT22;14078;50.974;6.786;2022-09-13T01:42:56;16.70;1.00
26378;DHT22;14078;50.974;6.786;2022-09-13T01:45:31;16.70;1.00
26378;DHT22;14078;50.974;6.786;2022-09-13T01:48:05;16.80;1.00
26378;DHT22;14078;50.974;6.786;2022-09-13T01:50:36;16.90;99.90
26378;DHT22;14078;50.974;6.786;2022-09-13T01:53:06;16.90;1.00
26378;DHT22;14078;50.974;6.786;2022-09-13T01:55:33;16.90;1.00
26378;DHT22;14078;50.974;6.786;2022-09-13T01:58:06;16.90;1.00
26378;DHT22;14078;50.974;6.786;2022-09-13T02:00:36;16.90;99.90
26378;DHT22;14078;50.974;6.786;2022-09-13T02:03:07;17.00;99.90
26378;DHT22;14078;50.974;6.786;2022-09-13T02:05:38;17.20;99.90
26378;DHT22;14078;50.974;6.786;2022-09-13T02:08:07;17.20;1.00
26378;DHT22;14078;50.974;6.786;2022-09-13T02:10:36;17.10;1.00
26378;DHT22;14078;50.974;6.786;2022-09-13T02:13:04;17.00;83.20
26378;DHT22;14078;50.974;6.786;2022-09-13T02:15:33;17.00;1.00
26378;DHT22;14078;50.974;6.786;2022-09-13T02:18:06;17.10;31.10
26378;DHT22;14078;50.974;6.786;2022-09-13T02:20:34;17.10;99.90
26378;DHT22;14078;50.974;6.786;2022-09-13T02:23:02;17.10;99.90
26378;DHT22;14078;50.974;6.786;2022-09-13T02:25:31;17.10;99.90
26378;DHT22;14078;50.974;6.786;2022-09-13T02:27:58;17.10;99.90
26378;DHT22;14078;50.974;6.786;2022-09-13T02:30:25;17.10;99.90
26378;DHT22;14078;50.974;6.786;2022-09-13T02:32:54;17.10;99.90
26378;DHT22;14078;50.974;6.786;2022-09-13T02:35:24;17.20;1.00
26378;DHT22;14078;50.974;6.786;2022-09-13T02:37:55;17.10;99.90
26378;DHT22;14078;50.974;6.786;2022-09-13T02:40:24;17.10;99.90
26378;DHT22;14078;50.974;6.786;2022-09-13T02:42:53;17.10;99.90
26378;DHT22;14078;50.974;6.786;2022-09-13T02:45:20;17.20;1.00
26378;DHT22;14078;50.974;6.786;2022-09-13T02:47:51;17.10;93.70
26378;DHT22;14078;50.974;6.786;2022-09-13T02:50:26;17.10;1.00
26378;DHT22;14078;50.974;6.786;2022-09-13T02:52:59;17.00;1.00
26378;DHT22;14078;50.974;6.786;2022-09-13T02:55:28;17.10;99.90
26378;DHT22;14078;50.974;6.786;2022-09-13T02:57:58;17.10;1.00
26378;DHT22;14078;50.974;6.786;2022-09-13T03:00:26;17.00;1.00
26378;DHT22;14078;50.974;6.786;2022-09-13T03:02:53;16.90;1.00
26378;DHT22;14078;50.974;6.786;2022-09-13T03:05:21;16.90;1.00
26378;DHT22;14078;50.974;6.786;2022-09-13T03:07:49;16.70;5.40
26378;DHT22;14078;50.974;6.786;2022-09-13T03:10:15;16.70;11.50
26378;DHT22;14078;50.974;6.786;2022-09-13T03:12:45;16.70;18.10
26378;DHT22;14078;50.974;6.786;2022-09-13T03:15:17;16.60;30.10
26378;DHT22;14078;50.974;6.786;2022-09-13T03:17:46;16.60;37.70
26378;DHT22;14078;50.974;6.786;2022-09-13T03:20:15;16.70;32.90
26378;DHT22;14078;50.974;6.786;2022-09-13T03:25:32;16.60;18.30
26378;DHT22;14078;50.974;6.786;2022-09-13T03:28:01;16.50;20.50
26378;DHT22;14078;50.974;6.786;2022-09-13T03:30:33;16.70;46.50
26378;DHT22;14078;50.974;6.786;2022-09-13T03:33:01;16.80;26.70
26378;DHT22;14078;50.974;6.786;2022-09-13T03:35:33;17.00;1.00
26378;DHT22;14078;50.974;6.786;2022-09-13T03:38:04;17.10;1.00
26378;DHT22;14078;50.974;6.786;2022-09-13T03:40:36;17.20;1.00
26378;DHT22;14078;50.974;6.786;2022-09-13T03:43:05;17.10;1.00
26378;DHT22;14078;50.974;6.786;2022-09-13T03:45:35;17.00;1.00
26378;DHT22;14078;50.974;6.786;2022-09-13T03:48:04;17.10;1.00
26378;DHT22;14078;50.974;6.786;2022-09-13T03:50:32;17.20;1.00
26378;DHT22;14078;50.974;6.786;2022-09-13T03:52:59;17.10;1.00
26378;DHT22;14078;50.974;6.786;2022-09-13T03:55:26;17.10;1.00
26378;DHT22;14078;50.974;6.786;2022-09-13T03:57:55;17.10;1.00
26378;DHT22;14078;50.974;6.786;2022-09-13T04:00:22;17.00;1.00
26378;DHT22;14078;50.974;6.786;2022-09-13T04:02:49;17.00;1.00
26378;DHT22;14078;50.974;6.786;2022-09-13T04:05:16;17.00;1.00
26378;DHT22;14078;50.974;6.786;2022-09-13T04:07:42;16.90;1.00
26378;DHT22;14078;50.974;6.786;2022-09-13T04:10:09;16.90;8.50
26378;DHT22;14078;50.974;6.786;2022-09-13T04:12:36;16.90;1.00
26378;DHT22;14078;50.974;6.786;2022-09-13T04:15:04;17.10;1.00
26378;DHT22;14078;50.974;6.786;2022-09-13T04:17:31;17.20;1.00
26378;DHT22;14078;50.974;6.786;2022-09-13T04:19:58;17.20;1.00
26378;DHT22;14078;50.974;6.786;2022-09-13T04:22:24;17.10;1.00
26378;DHT22;14078;50.974;6.786;2022-09-13T04:24:52;17.00;1.00
26378;DHT22;14078;50.974;6.786;2022-09-13T04:27:19;17.00;1.00
26378;DHT22;14078;50.974;6.786;2022-09-13T04:29:46;16.90;1.00
26378;DHT22;14078;50.974;6.786;2022-09-13T04:32:14;16.90;1.00
26378;DHT22;14078;50.974;6.786;2022-09-13T04:34:40;16.80;1.20
26378;DHT22;14078;50.974;6.786;2022-09-13T04:37:07;16.80;9.00
26378;DHT22;14078;50.974;6.786;2022-09-13T04:39:34;16.80;17.00
26378;DHT22;14078;50.974;6.786;2022-09-13T04:42:01;16.70;44.50
26378;DHT22;14078;50.974;6.786;2022-09-13T04:44:27;16.70;53.10
26378;DHT22;14078;50.974;6.786;2022-09-13T04:46:54;16.70;53.00
26378;DHT22;14078;50.974;6.786;2022-09-13T04:49:22;16.70;52.10
26378;DHT22;14078;50.974;6.786;2022-09-13T04:51:48;16.70;41.20
26378;DHT22;14078;50.974;6.786;2022-09-13T04:54:15;16.70;22.20
26378;DHT22;14078;50.974;6.786;2022-09-13T04:56:42;16.80;11.20
26378;DHT22;14078;50.974;6.786;2022-09-13T04:59:08;17.00;1.00
26378;DHT22;14078;50.974;6.786;2022-09-13T05:01:36;16.90;1.00
26378;DHT22;14078;50.974;6.786;2022-09-13T05:04:02;17.00;1.00
26378;DHT22;14078;50.974;6.786;2022-09-13T05:06:30;17.10;1.00
26378;DHT22;14078;50.974;6.786;2022-09-13T05:08:56;17.10;1.00
26378;DHT22;14078;50.974;6.786;2022-09-13T05:11:24;17.20;1.00
26378;DHT22;14078;50.974;6.786;2022-09-13T05:13:51;17.20;1.00
26378;DHT22;14078;50.974;6.786;2022-09-13T05:16:19;17.10;1.00
26378;DHT22;14078;50.974;6.786;2022-09-13T05:18:46;17.10;1.00
26378;DHT22;14078;50.974;6.786;2022-09-13T05:21:12;17.10;1.00
26378;DHT22;14078;50.974;6.786;2022-09-13T05:23:40;17.00;1.00
26378;DHT22;14078;50.974;6.786;2022-09-13T05:26:07;17.10;1.00
26378;DHT22;14078;50.974;6.786;2022-09-13T05:28:34;17.10;1.00
26378;DHT22;14078;50.974;6.786;2022-09-13T05:31:01;17.00;1.00
26378;DHT22;14078;50.974;6.786;2022-09-13T05:33:29;17.10;1.00
26378;DHT22;14078;50.974;6.786;2022-09-13T05:35:56;17.10;1.00
26378;DHT22;14078;50.974;6.786;2022-09-13T05:38:23;17.10;1.00
26378;DHT22;14078;50.974;6.786;2022-09-13T05:40:53;17.10;1.00
26378;DHT22;14078;50.974;6.786;2022-09-13T05:43:21;17.10;1.00
26378;DHT22;14078;50.974;6.786;2022-09-13T05:45:47;17.10;1.00
26378;DHT22;14078;50.974;6.786;2022-09-13T05:48:14;17.00;14.30
26378;DHT22;14078;50.974;6.786;2022-09-13T05:50:41;16.90;31.90
26378;DHT22;14078;50.974;6.786;2022-09-13T05:53:07;16.90;39.50
26378;DHT22;14078;50.974;6.786;2022-09-13T05:55:34;17.00;36.30
26378;DHT22;14078;50.974;6.786;2022-09-13T05:58:02;17.20;1.00
26378;DHT22;14078;50.974;6.786;2022-09-13T06:00:28;17.40;1.00
26378;DHT22;14078;50.974;6.786;2022-09-13T06:02:56;17.40;1.00
26378;DHT22;14078;50.974;6.786;2022-09-13T06:05:22;17.40;1.00
26378;DHT22;14078;50.974;6.786;2022-09-13T06:07:49;17.30;1.00
26378;DHT22;14078;50.974;6.786;2022-09-13T06:10:15;17.30;1.00
26378;DHT22;14078;50.974;6.786;2022-09-13T06:12:42;17.30;1.00
26378;DHT22;14078;50.974;6.786;2022-09-13T06:15:10;17.30;4.80
26378;DHT22;14078;50.974;6.786;2022-09-13T06:17:36;17.20;7.40
26378;DHT22;14078;50.974;6.786;2022-09-13T06:20:03;17.20;15.70
26378;DHT22;14078;50.974;6.786;2022-09-13T06:22:30;17.20;28.30
26378;DHT22;14078;50.974;6.786;2022-09-13T06:24:59;17.30;23.70
26378;DHT22;14078;50.974;6.786;2022-09-13T06:27:25;17.50;1.00
26378;DHT22;14078;50.974;6.786;2022-09-13T06:29:54;17.50;1.00
26378;DHT22;14078;50.974;6.786;2022-09-13T06:32:21;17.50;1.00
26378;DHT22;14078;50.974;6.786;2022-09-13T06:34:48;17.50;1.00
26378;DHT22;14078;50.974;6.786;2022-09-13T06:37:14;17.50;1.00
26378;DHT22;14078;50.974;6.786;2022-09-13T06:39:41;17.50;9.40
26378;DHT22;14078;50.974;6.786;2022-09-13T06:42:07;17.50;12.90
26378;DHT22;14078;50.974;6.786;2022-09-13T06:44:34;17.60;12.20
26378;DHT22;14078;50.974;6.786;2022-09-13T06:47:01;17.60;12.00
26378;DHT22;14078;50.974;6.786;2022-09-13T06:49:28;17.60;1.00
26378;DHT22;14078;50.974;6.786;2022-09-13T06:51:55;17.70;1.00
26378;DHT22;14078;50.974;6.786;2022-09-13T06:54:22;17.90;1.00
26378;DHT22;14078;50.974;6.786;2022-09-13T06:56:48;18.00;1.00
26378;DHT22;14078;50.974;6.786;2022-09-13T06:59:15;18.00;1.00
26378;DHT22;14078;50.974;6.786;2022-09-13T07:01:42;18.00;1.00
26378;DHT22;14078;50.974;6.786;2022-09-13T07:04:10;17.90;1.00
26378;DHT22;14078;50.974;6.786;2022-09-13T07:06:38;17.90;1.00
26378;DHT22;14078;50.974;6.786;2022-09-13T07:09:06;18.00;1.00
26378;DHT22;14078;50.974;6.786;2022-09-13T07:11:34;18.10;1.00
26378;DHT22;14078;50.974;6.786;2022-09-13T07:14:01;18.20;1.00
26378;DHT22;14078;50.974;6.786;2022-09-13T07:16:29;18.30;1.00
26378;DHT22;14078;50.974;6.786;2022-09-13T07:18:56;18.40;1.00
26378;DHT22;14078;50.974;6.786;2022-09-13T07:21:23;18.40;1.00
26378;DHT22;14078;50.974;6.786;2022-09-13T07:23:52;18.50;1.00
26378;DHT22;14078;50.974;6.786;2022-09-13T07:26:19;18.50;1.00
26378;DHT22;14078;50.974;6.786;2022-09-13T07:28:46;18.70;1.00
26378;DHT22;14078;50.974;6.786;2022-09-13T07:31:14;18.70;1.00
26378;DHT22;14078;50.974;6.786;2022-09-13T07:33:41;18.70;1.00
26378;DHT22;14078;50.974;6.786;2022-09-13T07:36:08;18.90;99.90
26378;DHT22;14078;50.974;6.786;2022-09-13T07:38:36;18.90;1.00
26378;DHT22;14078;50.974;6.786;2022-09-13T07:41:04;19.00;1.00
26378;DHT22;14078;50.974;6.786;2022-09-13T07:43:33;19.20;99.90
26378;DHT22;14078;50.974;6.786;2022-09-13T07:46:00;19.30;99.90
26378;DHT22;14078;50.974;6.786;2022-09-13T07:48:28;19.30;99.90
26378;DHT22;14078;50.974;6.786;2022-09-13T07:50:55;19.40;1.00
26378;DHT22;14078;50.974;6.786;2022-09-13T07:53:22;19.50;99.90
26378;DHT22;14078;50.974;6.786;2022-09-13T07:55:48;19.60;99.90
26378;DHT22;14078;50.974;6.786;2022-09-13T07:58:16;19.50;1.00
26378;DHT22;14078;50.974;6.786;2022-09-13T08:00:43;19.60;1.00
26378;DHT22;14078;50.974;6.786;2022-09-13T08:03:10;19.60;1.00
26378;DHT22;14078;50.974;6.786;2022-09-13T08:05:37;19.60;1.00
26378;DHT22;14078;50.974;6.786;2022-09-13T08:08:04;19.70;1.00
26378;DHT22;14078;50.974;6.786;2022-09-13T08:10:31;19.80;1.00
26378;DHT22;14078;50.974;6.786;2022-09-13T08:12:58;19.90;99.90
26378;DHT22;14078;50.974;6.786;2022-09-13T08:15:26;19.90;85.90
26378;DHT22;14078;50.974;6.786;2022-09-13T08:17:52;20.00;1.00
26378;DHT22;14078;50.974;6.786;2022-09-13T08:20:19;20.10;99.90
26378;DHT22;14078;50.974;6.786;2022-09-13T08:22:47;20.40;1.00
26378;DHT22;14078;50.974;6.786;2022-09-13T08:25:13;20.40;1.00
26378;DHT22;14078;50.974;6.786;2022-09-13T08:27:40;20.40;1.00
26378;DHT22;14078;50.974;6.786;2022-09-13T08:30:07;20.30;99.90
26378;DHT22;14078;50.974;6.786;2022-09-13T08:32:35;20.50;6.80
26378;DHT22;14078;50.974;6.786;2022-09-13T08:35:01;20.50;99.90
26378;DHT22;14078;50.974;6.786;2022-09-13T08:37:28;20.60;99.90
26378;DHT22;14078;50.974;6.786;2022-09-13T08:39:54;20.60;90.40
26378;DHT22;14078;50.974;6.786;2022-09-13T08:42:23;20.80;1.00
26378;DHT22;14078;50.974;6.786;2022-09-13T08:44:51;20.90;1.00
26378;DHT22;14078;50.974;6.786;2022-09-13T08:50:05;21.10;99.90
26378;DHT22;14078;50.974;6.786;2022-09-13T08:52:35;21.20;99.90
26378;DHT22;14078;50.974;6.786;2022-09-13T08:55:10;21.30;27.70
26378;DHT22;14078;50.974;6.786;2022-09-13T08:57:41;21.40;1.00
26378;DHT22;14078;50.974;6.786;2022-09-13T09:00:13;21.40;1.00
26378;DHT22;14078;50.974;6.786;2022-09-13T09:02:46;21.50;1.00
26378;DHT22;14078;50.974;6.786;2022-09-13T09:05:15;21.60;1.00
26378;DHT22;14078;50.974;6.786;2022-09-13T09:07:43;21.70;1.00
26378;DHT22;14078;50.974;6.786;2022-09-13T09:10:13;21.80;1.00
26378;DHT22;14078;50.974;6.786;2022-09-13T09:12:41;21.80;1.00
26378;DHT22;14078;50.974;6.786;2022-09-13T09:15:12;21.90;1.00
26378;DHT22;14078;50.974;6.786;2022-09-13T09:17:41;21.90;1.00
26378;DHT22;14078;50.974;6.786;2022-09-13T09:20:17;21.90;1.00
26378;DHT22;14078;50.974;6.786;2022-09-13T09:22:47;21.90;1.00
26378;DHT22;14078;50.974;6.786;2022-09-13T09:25:15;21.90;1.00
26378;DHT22;14078;50.974;6.786;2022-09-13T09:27:42;21.90;1.00
26378;DHT22;14078;50.974;6.786;2022-09-13T09:30:11;22.00;1.00
26378;DHT22;14078;50.974;6.786;2022-09-13T09:32:46;22.10;1.00
26378;DHT22;14078;50.974;6.786;2022-09-13T09:35:17;22.10;1.00
26378;DHT22;14078;50.974;6.786;2022-09-13T09:37:49;22.30;1.00
26378;DHT22;14078;50.974;6.786;2022-09-13T09:40:18;22.30;1.00
26378;DHT22;14078;50.974;6.786;2022-09-13T09:42:45;22.40;1.00
26378;DHT22;14078;50.974;6.786;2022-09-13T09:45:18;22.30;1.00
26378;DHT22;14078;50.974;6.786;2022-09-13T09:47:49;22.30;1.00
26378;DHT22;14078;50.974;6.786;2022-09-13T09:50:17;22.50;1.00
26378;DHT22;14078;50.974;6.786;2022-09-13T09:52:45;22.50;1.00
26378;DHT22;14078;50.974;6.786;2022-09-13T09:55:22;22.60;1.00
26378;DHT22;14078;50.974;6.786;2022-09-13T09:57:51;22.60;1.00
26378;DHT22;14078;50.974;6.786;2022-09-13T10:00:18;22.60;1.00
26378;DHT22;14078;50.974;6.786;2022-09-13T10:02:45;22.70;1.00
26378;DHT22;14078;50.974;6.786;2022-09-13T10:05:12;22.80;1.00
26378;DHT22;14078;50.974;6.786;2022-09-13T10:07:40;23.00;1.00
26378;DHT22;14078;50.974;6.786;2022-09-13T10:10:07;23.10;1.00
26378;DHT22;14078;50.974;6.786;2022-09-13T10:12:46;23.20;1.00
26378;DHT22;14078;50.974;6.786;2022-09-13T10:15:15;23.50;1.00
26378;DHT22;14078;50.974;6.786;2022-09-13T10:17:42;23.50;1.00
26378;DHT22;14078;50.974;6.786;2022-09-13T10:20:25;23.60;1.00
26378;DHT22;14078;50.974;6.786;2022-09-13T10:23:10;23.70;1.00
26378;DHT22;14078;50.974;6.786;2022-09-13T10:25:37;23.70;1.00
26378;DHT22;14078;50.974;6.786;2022-09-13T10:28:04;23.80;1.00
26378;DHT22;14078;50.974;6.786;2022-09-13T10:30:34;23.90;1.00
26378;DHT22;14078;50.974;6.786;2022-09-13T10:33:02;23.80;1.00
26378;DHT22;14078;50.974;6.786;2022-09-13T10:35:28;23.70;1.00
26378;DHT22;14078;50.974;6.786;2022-09-13T10:37:55;23.60;1.00
26378;DHT22;14078;50.974;6.786;2022-09-13T10:40:25;23.70;1.00
26378;DHT22;14078;50.974;6.786;2022-09-13T10:42:52;23.80;1.00
26378;DHT22;14078;50.974;6.786;2022-09-13T10:45:21;23.80;1.00
26378;DHT22;14078;50.974;6.786;2022-09-13T10:47:48;23.90;1.00
26378;DHT22;14078;50.974;6.786;2022-09-13T10:50:17;23.90;1.00
26378;DHT22;14078;50.974;6.786;2022-09-13T10:52:45;23.90;1.00
26378;DHT22;14078;50.974;6.786;2022-09-13T10:55:27;23.90;1.00
26378;DHT22;14078;50.974;6.786;2022-09-13T10:57:54;23.90;1.00
26378;DHT22;14078;50.974;6.786;2022-09-13T11:00:22;23.80;1.00
26378;DHT22;14078;50.974;6.786;2022-09-13T11:02:58;23.90;1.00
26378;DHT22;14078;50.974;6.786;2022-09-13T11:05:30;24.00;99.90
26378;DHT22;14078;50.974;6.786;2022-09-13T11:10:47;24.30;99.90
26378;DHT22;14078;50.974;6.786;2022-09-13T11:13:17;24.30;1.00
26378;DHT22;14078;50.974;6.786;2022-09-13T11:15:50;24.30;99.90
26378;DHT22;14078;50.974;6.786;2022-09-13T11:18:23;24.40;99.90
26378;DHT22;14078;50.974;6.786;2022-09-13T11:20:56;24.40;99.90
26378;DHT22;14078;50.974;6.786;2022-09-13T11:23:29;24.30;99.90
26378;DHT22;14078;50.974;6.786;2022-09-13T11:26:05;24.50;99.90
26378;DHT22;14078;50.974;6.786;2022-09-13T11:28:36;24.60;99.90
26378;DHT22;14078;50.974;6.786;2022-09-13T11:31:12;24.70;99.90
26378;DHT22;14078;50.974;6.786;2022-09-13T11:33:45;24.60;99.90
26378;DHT22;14078;50.974;6.786;2022-09-13T11:36:23;24.60;99.90
26378;DHT22;14078;50.974;6.786;2022-09-13T11:38:54;24.50;99.90
26378;DHT22;14078;50.974;6.786;2022-09-13T11:41:26;24.50;99.90
26378;DHT22;14078;50.974;6.786;2022-09-13T11:44:04;24.50;99.90
26378;DHT22;14078;50.974;6.786;2022-09-13T11:46:38;24.60;99.90
26378;DHT22;14078;50.974;6.786;2022-09-13T11:49:29;24.70;99.90
26378;DHT22;14078;50.974;6.786;2022-09-13T11:52:02;24.80;99.90
26378;DHT22;14078;50.974;6.786;2022-09-13T11:54:35;24.70;99.90
26378;DHT22;14078;50.974;6.786;2022-09-13T11:57:08;24.80;99.90
26378;DHT22;14078;50.974;6.786;2022-09-13T11:59:37;24.80;99.90
26378;DHT22;14078;50.974;6.786;2022-09-13T12:02:11;24.80;99.90
26378;DHT22;14078;50.974;6.786;2022-09-13T12:04:41;24.90;99.90
26378;DHT22;14078;50.974;6.786;2022-09-13T12:07:11;24.80;99.90
26378;DHT22;14078;50.974;6.786;2022-09-13T12:09:42;24.80;99.90
26378;DHT22;14078;50.974;6.786;2022-09-13T12:12:13;24.80;99.90
26378;DHT22;14078;50.974;6.786;2022-09-13T12:14:41;24.80;99.90
26378;DHT22;14078;50.974;6.786;2022-09-13T12:17:13;24.80;99.90
26378;DHT22;14078;50.974;6.786;2022-09-13T12:19:44;24.80;99.90
26378;DHT22;14078;50.974;6.786;2022-09-13T12:22:11;24.90;99.90
26378;DHT22;14078;50.974;6.786;2022-09-13T12:24:39;25.00;99.90
26378;DHT22;14078;50.974;6.786;2022-09-13T12:27:08;25.10;99.90
26378;DHT22;14078;50.974;6.786;2022-09-13T12:29:42;25.10;99.90
26378;DHT22;14078;50.974;6.786;2022-09-13T12:32:09;25.20;99.90
26378;DHT22;14078;50.974;6.786;2022-09-13T12:34:39;25.30;99.90
26378;DHT22;14078;50.974;6.786;2022-09-13T12:39:52;25.60;99.90
26378;DHT22;14078;50.974;6.786;2022-09-13T12:42:34;25.60;99.90
26378;DHT22;14078;50.974;6.786;2022-09-13T12:45:10;25.50;99.90
26378;DHT22;14078;50.974;6.786;2022-09-13T12:50:30;25.50;99.90
26378;DHT22;14078;50.974;6.786;2022-09-13T12:53:04;25.40;99.90
26378;DHT22;14078;50.974;6.786;2022-09-13T12:55:43;25.40;99.90
26378;DHT22;14078;50.974;6.786;2022-09-13T12:58:16;25.50;99.90
26378;DHT22;14078;50.974;6.786;2022-09-13T13:00:49;25.40;99.90
26378;DHT22;14078;50.974;6.786;2022-09-13T13:03:29;25.40;99.90
26378;DHT22;14078;50.974;6.786;2022-09-13T13:06:05;25.40;99.90
26378;DHT22;14078;50.974;6.786;2022-09-13T13:08:32;25.50;99.90
26378;DHT22;14078;50.974;6.786;2022-09-13T13:11:00;25.50;99.90
26378;DHT22;14078;50.974;6.786;2022-09-13T13:13:30;25.50;99.90
26378;DHT22;14078;50.974;6.786;2022-09-13T13:16:02;25.50;99.90
26378;DHT22;14078;50.974;6.786;2022-09-13T13:18:30;25.60;99.90
26378;DHT22;14078;50.974;6.786;2022-09-13T13:21:05;25.50;99.90
26378;DHT22;14078;50.974;6.786;2022-09-13T13:23:32;25.50;99.90
26378;DHT22;14078;50.974;6.786;2022-09-13T13:26:04;25.50;99.90
26378;DHT22;14078;50.974;6.786;2022-09-13T13:31:36;25.50;99.90
26378;DHT22;14078;50.974;6.786;2022-09-13T13:36:45;25.60;99.90
26378;DHT22;14078;50.974;6.786;2022-09-13T13:41:58;25.60;99.90
26378;DHT22;14078;50.974;6.786;2022-09-13T13:50:12;25.70;99.90
26378;DHT22;14078;50.974;6.786;2022-09-13T13:52:40;25.70;99.90
26378;DHT22;14078;50.974;6.786;2022-09-13T14:01:00;26.30;99.90
26378;DHT22;14078;50.974;6.786;2022-09-13T14:03:31;26.50;99.90
26378;DHT22;14078;50.974;6.786;2022-09-13T14:06:02;26.50;99.90
26378;DHT22;14078;50.974;6.786;2022-09-13T14:08:34;26.40;99.90
26378;DHT22;14078;50.974;6.786;2022-09-13T14:11:06;26.40;99.90
26378;DHT22;14078;50.974;6.786;2022-09-13T14:13:41;26.40;99.90
26378;DHT22;14078;50.974;6.786;2022-09-13T14:16:12;26.40;99.90
26378;DHT22;14078;50.974;6.786;2022-09-13T14:18:49;26.30;99.90
26378;DHT22;14078;50.974;6.786;2022-09-13T14:21:19;26.30;99.90
26378;DHT22;14078;50.974;6.786;2022-09-13T14:23:46;26.30;99.90
26378;DHT22;14078;50.974;6.786;2022-09-13T14:26:12;26.40;99.90
26378;DHT22;14078;50.974;6.786;2022-09-13T14:28:39;26.50;99.90
26378;DHT22;14078;50.974;6.786;2022-09-13T14:31:06;26.60;99.90
26378;DHT22;14078;50.974;6.786;2022-09-13T14:33:33;26.70;99.90
26378;DHT22;14078;50.974;6.786;2022-09-13T14:36:02;26.60;99.90
26378;DHT22;14078;50.974;6.786;2022-09-13T14:38:31;26.50;99.90
26378;DHT22;14078;50.974;6.786;2022-09-13T14:41:01;26.60;99.90
26378;DHT22;14078;50.974;6.786;2022-09-13T14:43:28;26.70;99.90
26378;DHT22;14078;50.974;6.786;2022-09-13T14:45:56;26.80;99.90
26378;DHT22;14078;50.974;6.786;2022-09-13T14:48:25;26.90;99.90
26378;DHT22;14078;50.974;6.786;2022-09-13T14:50:53;26.80;99.90
26378;DHT22;14078;50.974;6.786;2022-09-13T14:53:21;26.70;99.90
26378;DHT22;14078;50.974;6.786;2022-09-13T14:55:51;26.70;99.90
26378;DHT22;14078;50.974;6.786;2022-09-13T14:58:19;26.70;99.90
26378;DHT22;14078;50.974;6.786;2022-09-13T15:00:47;26.80;99.90
26378;DHT22;14078;50.974;6.786;2022-09-13T15:03:15;26.80;99.90
26378;DHT22;14078;50.974;6.786;2022-09-13T15:05:49;26.80;99.90
26378;DHT22;14078;50.974;6.786;2022-09-13T15:08:26;26.60;99.90
26378;DHT22;14078;50.974;6.786;2022-09-13T15:10:56;26.50;99.90
26378;DHT22;14078;50.974;6.786;2022-09-13T15:13:23;26.40;99.90
26378;DHT22;14078;50.974;6.786;2022-09-13T15:15:50;26.30;99.90
26378;DHT22;14078;50.974;6.786;2022-09-13T15:18:23;26.10;99.90
26378;DHT22;14078;50.974;6.786;2022-09-13T15:20:51;26.00;99.90
26378;DHT22;14078;50.974;6.786;2022-09-13T15:23:20;25.90;99.90
26378;DHT22;14078;50.974;6.786;2022-09-13T15:25:49;25.80;99.90
26378;DHT22;14078;50.974;6.786;2022-09-13T15:28:22;25.70;99.90
26378;DHT22;14078;50.974;6.786;2022-09-13T15:30:48;25.80;99.90
26378;DHT22;14078;50.974;6.786;2022-09-13T15:33:19;25.60;99.90
26378;DHT22;14078;50.974;6.786;2022-09-13T15:35:47;25.60;99.90
26378;DHT22;14078;50.974;6.786;2022-09-13T15:38:16;25.50;99.90
26378;DHT22;14078;50.974;6.786;2022-09-13T15:40:43;25.40;99.90
26378;DHT22;14078;50.974;6.786;2022-09-13T15:43:10;25.30;99.90
26378;DHT22;14078;50.974;6.786;2022-09-13T15:45:38;25.20;99.90
26378;DHT22;14078;50.974;6.786;2022-09-13T15:48:04;25.10;99.90
26378;DHT22;14078;50.974;6.786;2022-09-13T15:50:32;25.10;99.90
26378;DHT22;14078;50.974;6.786;2022-09-13T15:53:01;24.90;99.90
26378;DHT22;14078;50.974;6.786;2022-09-13T15:55:27;24.90;99.90
26378;DHT22;14078;50.974;6.786;2022-09-13T15:57:56;24.90;99.90
26378;DHT22;14078;50.974;6.786;2022-09-13T16:00:23;24.80;99.90
26378;DHT22;14078;50.974;6.786;2022-09-13T16:02:52;24.80;99.90
26378;DHT22;14078;50.974;6.786;2022-09-13T16:05:19;24.70;99.90
26378;DHT22;14078;50.974;6.786;2022-09-13T16:07:45;24.70;99.90
26378;DHT22;14078;50.974;6.786;2022-09-13T16:10:13;24.70;99.90
26378;DHT22;14078;50.974;6.786;2022-09-13T16:12:40;24.70;99.90
26378;DHT22;14078;50.974;6.786;2022-09-13T16:15:07;24.70;99.90
26378;DHT22;14078;50.974;6.786;2022-09-13T16:17:34;24.70;99.90
26378;DHT22;14078;50.974;6.786;2022-09-13T16:20:02;24.70;99.90
26378;DHT22;14078;50.974;6.786;2022-09-13T16:22:28;24.60;99.90